Time;durP1;ratioP1;P1;durP2;ratioP2;P2;SDS_P1;SDS_P2;PMS_P1;PMS_P2;Temp;Humidity;BMP_temperature;BMP_pressure;BME280_temperature;BME280_humidity;BME280_pressure;Samples;Min_cycle;Max_cycle;Signal;HPM_P1;HPM_P2
2022/11/04 00:00:22;;;;;;;7.32;4.00;;;;;;;9.40;89.82;97263.38;4157785;28;20208;-73
2022/11/04 00:02:23;;;;;;;7.82;5.45;;;;;;;9.34;90.24;97256.69;4156776;28;20046;-73
2022/11/04 00:04:25;;;;;;;6.22;4.43;;;;;;;9.31;90.92;97263.81;4157891;28;20484;-73
2022/11/04 00:06:25;;;;;;;7.07;4.63;;;;;;;9.27;90.81;97255.53;4159227;28;20070;-73
2022/11/04 00:08:26;;;;;;;7.00;4.60;;;;;;;9.24;91.28;97259.09;4157656;28;20149;-73
2022/11/04 00:12:23;;;;;;;7.10;4.30;;;;;;;9.20;92.07;97263.06;4159182;28;20042;-73
2022/11/04 00:12:46;;;;;;;6.32;4.53;;;;;;;9.18;91.69;97259.88;4157049;28;20116;-73
2022/11/04 00:14:46;;;;;;;6.60;4.30;;;;;;;9.18;92.21;97268.16;4156876;28;20080;-73
2022/11/04 00:19:06;;;;;;;6.60;4.57;;;;;;;9.13;91.79;97285.94;4158165;28;20099;-73
2022/11/04 00:30:30;;;;;;;7.53;5.10;;;;;;;9.10;92.60;97261.09;4157250;28;20390;-73
2022/11/04 00:34:50;;;;;;;7.20;4.47;;;;;;;9.06;91.89;97255.59;4159417;28;20551;-73
2022/11/04 00:36:50;;;;;;;6.68;4.40;;;;;;;9.06;92.08;97257.56;4155973;28;20049;-74
2022/11/04 00:38:51;;;;;;;6.22;4.50;;;;;;;9.03;92.24;97259.16;4157206;28;20054;-73
2022/11/04 00:40:52;;;;;;;6.15;4.40;;;;;;;9.07;91.67;97259.13;4155357;28;20489;-73
2022/11/04 00:42:52;;;;;;;7.60;4.60;;;;;;;9.06;92.54;97254.81;4157284;28;20488;-73
2022/11/04 00:44:52;;;;;;;7.68;4.70;;;;;;;9.05;92.29;97256.78;4155558;28;20042;-73
2022/11/04 00:46:53;;;;;;;6.32;4.43;;;;;;;9.05;92.46;97247.72;4156485;28;20111;-73
2022/11/04 00:48:53;;;;;;;8.02;4.95;;;;;;;9.04;91.79;97257.19;4154704;28;20501;-73
2022/11/04 00:50:53;;;;;;;9.32;4.50;;;;;;;9.05;91.69;97258.75;4155254;28;20488;-73
2022/11/04 00:52:59;;;;;;;6.90;4.90;;;;;;;9.03;92.24;97255.59;4154469;28;20058;-73
2022/11/04 00:54:59;;;;;;;7.43;4.95;;;;;;;9.07;91.41;97261.88;4154681;28;20374;-73
2022/11/04 00:56:59;;;;;;;7.72;4.80;;;;;;;9.08;91.63;97257.94;4156300;28;20049;-73
2022/11/04 00:59:00;;;;;;;8.73;5.00;;;;;;;9.08;91.44;97261.50;4155101;28;20452;-73
2022/11/04 01:01:06;;;;;;;7.57;4.93;;;;;;;9.10;92.19;97261.91;4154613;28;20393;-73
2022/11/04 01:03:06;;;;;;;7.20;5.07;;;;;;;9.12;92.06;97269.78;4154258;28;20156;-73
2022/11/04 01:05:07;;;;;;;8.07;5.00;;;;;;;9.19;92.58;97280.81;4160697;28;20073;-73
2022/11/04 01:07:07;;;;;;;7.47;4.82;;;;;;;9.46;91.79;97278.34;4157065;28;20940;-73
2022/11/04 01:09:09;;;;;;;9.30;5.13;;;;;;;9.48;91.61;97275.97;4159648;28;20726;-73
2022/11/04 01:11:10;;;;;;;7.18;4.70;;;;;;;9.61;90.15;97281.84;4156512;28;20046;-73
2022/11/04 01:13:11;;;;;;;7.63;4.70;;;;;;;9.68;91.19;97287.31;4154947;28;20038;-73
2022/11/04 01:15:11;;;;;;;6.60;5.05;;;;;;;9.75;90.59;97290.06;4154732;28;20473;-73
2022/11/04 01:17:11;;;;;;;6.13;4.60;;;;;;;9.78;89.97;97290.06;4155144;28;20215;-73
2022/11/04 01:19:12;;;;;;;7.22;5.07;;;;;;;9.85;91.24;97292.00;4153942;28;20046;-73
2022/11/04 01:21:14;;;;;;;5.45;4.38;;;;;;;9.93;91.23;97293.56;4153456;28;20084;-73
2022/11/04 01:23:15;;;;;;;10.98;5.18;;;;;;;9.97;91.93;97294.31;4154017;28;20041;-73
2022/11/04 01:25:15;;;;;;;7.05;4.25;;;;;;;9.97;90.06;97283.25;4154365;28;20087;-73
2022/11/04 01:27:16;;;;;;;6.47;4.03;;;;;;;10.09;92.74;97273.69;4156726;28;20080;-73
2022/11/04 01:29:16;;;;;;;7.20;4.20;;;;;;;10.06;92.11;97280.03;4155768;28;20073;-73
2022/11/04 01:31:22;;;;;;;6.25;4.32;;;;;;;10.06;93.56;97293.88;4154834;28;20493;-73
2022/11/04 01:33:23;;;;;;;5.13;3.75;;;;;;;10.01;93.41;97297.84;4159465;28;21171;-73
2022/11/04 01:35:24;;;;;;;6.70;3.58;;;;;;;9.97;93.38;97288.78;4156372;28;20044;-73
2022/11/04 01:37:24;;;;;;;4.80;3.20;;;;;;;9.98;94.45;97286.81;4155298;28;20041;-73
2022/11/04 01:39:24;;;;;;;5.25;3.67;;;;;;;10.06;92.75;97283.59;4157817;28;20474;-73
2022/11/04 01:41:30;;;;;;;5.30;3.92;;;;;;;10.05;94.96;97284.78;4155312;28;20144;-73
2022/11/04 01:43:51;;;;;;;6.03;3.72;;;;;;;10.07;95.65;97276.88;4155124;28;20041;-73
2022/11/04 01:45:59;;;;;;;4.43;3.38;;;;;;;9.98;93.62;97278.50;4158306;28;20049;-73
2022/11/04 01:48:07;;;;;;;4.53;3.30;;;;;;;9.93;94.87;97274.22;4155616;28;20041;-73
2022/11/04 01:50:15;;;;;;;4.65;3.30;;;;;;;9.87;94.50;97275.81;4155091;28;20084;-73
2022/11/04 01:52:22;;;;;;;4.28;3.60;;;;;;;9.89;94.76;97265.13;4155964;28;20551;-73
2022/11/04 01:54:23;;;;;;;4.53;3.25;;;;;;;9.90;94.29;97275.00;4157954;28;20044;-73
2022/11/04 01:56:25;;;;;;;6.28;4.10;;;;;;;9.88;95.98;97269.09;4154887;28;20476;-74
2022/11/04 01:58:30;;;;;;;4.57;3.53;;;;;;;9.89;95.91;97275.41;4154132;28;20057;-73
2022/11/04 02:00:31;;;;;;;5.88;3.72;;;;;;;9.84;95.67;97277.38;4156417;28;20045;-73
2022/11/04 02:02:34;;;;;;;4.53;3.15;;;;;;;9.80;94.51;97273.88;4155871;28;20049;-73
2022/11/04 02:04:37;;;;;;;4.55;3.80;;;;;;;9.80;94.86;97279.41;4155646;28;20831;-74
2022/11/04 02:06:37;;;;;;;5.25;3.92;;;;;;;9.79;95.50;97282.56;4153708;28;20061;-73
2022/11/04 02:08:39;;;;;;;5.00;3.90;;;;;;;9.79;97.30;97290.84;4152601;28;20042;-73
2022/11/04 02:10:44;;;;;;;4.10;3.60;;;;;;;9.81;97.30;97283.72;4156883;28;20741;-74
2022/11/04 02:12:50;;;;;;;4.78;3.42;;;;;;;9.81;94.68;97283.72;4154772;28;20044;-73
2022/11/04 02:14:52;;;;;;;4.93;3.75;;;;;;;9.80;95.06;97297.94;4157265;28;20049;-73
2022/11/04 02:17:03;;;;;;;5.32;4.15;;;;;;;9.79;96.33;97293.63;4154228;28;20803;-73
2022/11/04 02:19:54;;;;;;;5.60;3.80;;;;;;;9.85;96.87;97295.56;4160748;28;20049;-73
2022/11/04 02:22:19;;;;;;;6.20;4.18;;;;;;;9.84;96.06;97291.19;4134374;28;20388;-73
2022/11/04 02:24:54;;;;;;;6.78;4.18;;;;;;;9.82;96.78;97309.38;4155526;28;20041;-73
2022/11/04 02:27:00;;;;;;;6.18;4.35;;;;;;;9.81;96.78;97307.81;4154926;28;20049;-74
2022/11/04 02:29:09;;;;;;;6.30;4.28;;;;;;;9.81;95.05;97313.31;4154072;28;20052;-73
2022/11/04 02:31:17;;;;;;;9.68;4.15;;;;;;;9.81;95.93;97308.59;4154645;28;20114;-73
2022/11/04 02:34:01;;;;;;;5.53;4.20;;;;;;;9.82;96.02;97301.09;4160201;28;20076;-73
2022/11/04 02:36:16;;;;;;;5.32;4.13;;;;;;;9.87;95.95;97308.19;4093803;28;20058;-73
2022/11/04 02:38:22;;;;;;;6.15;4.00;;;;;;;9.87;96.01;97311.72;4157348;28;20112;-73
2022/11/04 02:40:38;;;;;;;7.80;4.00;;;;;;;9.85;96.26;97312.13;4158018;28;20045;-73
2022/11/04 02:42:44;;;;;;;5.53;3.67;;;;;;;9.81;95.70;97313.31;4158937;28;20506;-73
2022/11/04 02:45:02;;;;;;;5.22;3.50;;;;;;;9.79;96.10;97316.50;4156822;28;20549;-73
2022/11/04 02:47:20;;;;;;;4.35;3.47;;;;;;;9.76;96.37;97322.00;4159239;28;20060;-74
2022/11/04 02:50:08;;;;;;;6.85;3.40;;;;;;;9.76;96.75;97327.53;4159867;28;20041;-74
2022/11/04 02:52:15;;;;;;;5.20;3.35;;;;;;;9.75;95.45;97329.53;4139637;28;20052;-73
2022/11/04 02:54:27;;;;;;;3.90;3.25;;;;;;;9.73;95.85;97334.66;4155602;28;20579;-73
2022/11/04 02:56:30;;;;;;;4.67;3.07;;;;;;;9.75;96.66;97324.00;4161354;28;20038;-74
2022/11/04 02:58:39;;;;;;;4.97;3.38;;;;;;;9.74;96.30;97321.63;4157761;28;20188;-73
2022/11/04 03:00:42;;;;;;;4.75;3.20;;;;;;;9.72;96.16;97322.03;4156803;28;20134;-73
2022/11/04 03:02:47;;;;;;;4.97;3.50;;;;;;;9.72;95.99;97321.25;4156577;28;20050;-73
2022/11/04 03:04:51;;;;;;;5.05;3.00;;;;;;;9.70;96.43;97321.66;4156632;28;20453;-73
2022/11/04 03:06:54;;;;;;;3.13;2.70;;;;;;;9.72;96.76;97330.31;4156428;28;20059;-73
2022/11/04 03:08:56;;;;;;;6.55;3.55;;;;;;;9.72;96.46;97329.53;4155966;28;20073;-73
2022/11/04 03:11:08;;;;;;;7.13;3.60;;;;;;;9.75;96.18;97325.97;4157365;28;20103;-73
2022/11/04 03:13:21;;;;;;;4.43;3.30;;;;;;;9.77;96.51;97329.13;4155603;28;20056;-73
2022/11/04 03:15:27;;;;;;;5.20;3.97;;;;;;;9.88;95.18;97324.34;4161357;28;20053;-73
2022/11/04 03:17:35;;;;;;;4.28;3.50;;;;;;;9.86;94.75;97321.22;4157290;28;20133;-73
2022/11/04 03:19:41;;;;;;;6.22;4.15;;;;;;;9.92;94.79;97332.59;4156117;28;20075;-73
2022/11/04 03:21:53;;;;;;;5.30;3.75;;;;;;;9.94;94.97;97341.31;4158237;28;20049;-73
2022/11/04 03:23:54;;;;;;;7.63;3.90;;;;;;;9.92;95.02;97336.16;4155423;28;20049;-73
2022/11/04 03:26:03;;;;;;;7.05;3.55;;;;;;;9.98;94.27;97328.25;4157641;28;20045;-74
2022/11/04 03:28:29;;;;;;;6.97;3.80;;;;;;;9.96;94.61;97336.16;4159943;28;20359;-74
2022/11/04 03:30:41;;;;;;;5.88;3.60;;;;;;;9.97;94.60;97343.25;4161101;28;20056;-74
2022/11/04 03:33:03;;;;;;;4.85;3.47;;;;;;;9.92;94.86;97343.66;4155154;28;20052;-73
2022/11/04 03:35:04;;;;;;;5.47;3.70;;;;;;;9.94;94.75;97350.38;4157160;28;20033;-74
2022/11/04 03:37:05;;;;;;;5.90;3.60;;;;;;;9.90;94.98;97344.06;4155503;28;20470;-73
2022/11/04 03:39:05;;;;;;;4.72;3.63;;;;;;;9.87;94.76;97342.13;4156686;28;20048;-73
2022/11/04 03:41:30;;;;;;;5.13;3.92;;;;;;;9.87;95.24;97355.16;4156093;28;20135;-73
2022/11/04 03:43:33;;;;;;;4.30;3.47;;;;;;;9.90;95.57;97359.84;4160506;28;20064;-74
2022/11/04 03:45:34;;;;;;;5.15;3.55;;;;;;;9.89;95.30;97367.38;4161500;28;20041;-73
2022/11/04 03:47:36;;;;;;;7.15;3.90;;;;;;;9.84;95.73;97371.31;4157934;28;20045;-73
2022/11/04 03:49:36;;;;;;;6.25;4.03;;;;;;;9.80;96.06;97376.06;4156588;28;20041;-73
2022/11/04 03:51:36;;;;;;;5.65;3.63;;;;;;;9.75;95.94;97367.41;4158872;28;20256;-74
2022/11/04 03:53:37;;;;;;;4.05;3.15;;;;;;;9.76;96.13;97377.25;4157392;28;20064;-74
2022/11/04 03:56:05;;;;;;;5.97;3.42;;;;;;;9.77;96.21;97381.63;4157468;28;20049;-73
2022/11/04 03:58:22;;;;;;;5.88;3.28;;;;;;;9.78;97.21;97381.22;4155248;28;20301;-73
2022/11/04 04:00:23;;;;;;;5.03;4.00;;;;;;;9.75;96.98;97390.28;4156910;28;20052;-73
2022/11/04 04:02:50;;;;;;;7.55;4.15;;;;;;;9.73;97.71;97383.59;4156465;28;20099;-73
2022/11/04 04:05:29;;;;;;;4.07;3.28;;;;;;;9.74;97.86;97382.41;4157138;28;20072;-73
2022/11/04 04:07:38;;;;;;;5.82;3.88;;;;;;;9.71;98.37;97372.16;4134769;28;20370;-74
2022/11/04 04:09:44;;;;;;;8.15;4.00;;;;;;;9.70;99.20;97370.59;4157249;28;20049;-74
2022/11/04 04:11:56;;;;;;;6.60;4.40;;;;;;;9.66;99.14;97367.81;4161621;28;20052;-73
2022/11/04 04:14:07;;;;;;;4.97;3.75;;;;;;;9.64;99.63;97374.94;4155782;28;20136;-73
2022/11/04 04:16:12;;;;;;;4.90;3.40;;;;;;;9.60;99.37;97369.44;4159712;28;20057;-73
2022/11/04 04:18:16;;;;;;;5.82;4.15;;;;;;;9.56;99.91;97369.44;4155918;28;20060;-73
2022/11/04 04:20:22;;;;;;;4.75;3.55;;;;;;;9.54;100.00;97371.81;4159126;28;20338;-73
2022/11/04 04:22:32;;;;;;;7.07;4.07;;;;;;;9.56;99.74;97382.44;4156796;28;20371;-73
2022/11/04 04:29:19;;;;;;;7.45;4.50;;;;;;;9.52;99.90;97396.28;4160549;28;20059;-74
2022/11/04 04:33:40;;;;;;;5.13;3.47;;;;;;;9.52;100.00;97415.59;4155149;28;20098;-74
2022/11/04 04:35:45;;;;;;;4.35;3.55;;;;;;;9.52;100.00;97407.31;4160009;28;20124;-74
2022/11/04 04:37:47;;;;;;;3.78;2.97;;;;;;;9.54;100.00;97413.22;4156245;28;20443;-74
2022/11/04 04:47:01;;;;;;;;;;;;;;;9.47;100.00;97429.78;4155345;28;20054;-73
2022/11/04 04:49:06;;;;;;;4.68;3.35;;;;;;;9.40;100.00;97421.53;4155395;28;20168;-73
2022/11/04 04:51:07;;;;;;;4.82;3.35;;;;;;;9.37;100.00;97410.50;4155349;28;20064;-74
2022/11/04 04:53:07;;;;;;;4.45;3.38;;;;;;;9.35;100.00;97412.84;4154407;28;20470;-74
2022/11/04 04:55:08;;;;;;;5.72;3.75;;;;;;;9.31;100.00;97425.88;4154944;28;20045;-73
2022/11/04 04:57:08;;;;;;;4.97;3.05;;;;;;;9.26;100.00;97418.75;4155369;28;20067;-73
2022/11/04 04:59:09;;;;;;;5.13;3.22;;;;;;;9.27;100.00;97429.44;4157562;28;20124;-74
2022/11/04 05:01:09;;;;;;;4.43;3.15;;;;;;;9.25;100.00;97436.50;4154366;28;20049;-73
2022/11/04 05:03:09;;;;;;;5.22;3.22;;;;;;;9.24;100.00;97451.50;4156493;28;20095;-73
2022/11/04 05:05:12;;;;;;;4.93;3.10;;;;;;;9.22;100.00;97451.09;4155077;28;20581;-73
2022/11/04 05:07:12;;;;;;;6.35;4.60;;;;;;;9.17;100.00;97445.97;4158334;28;20675;-73
2022/11/04 05:09:12;;;;;;;4.60;3.58;;;;;;;9.16;100.00;97452.66;4157189;28;20132;-73
2022/11/04 05:11:13;;;;;;;4.90;3.33;;;;;;;9.19;100.00;97451.91;4156701;28;20052;-74
2022/11/04 05:13:25;;;;;;;2.88;2.10;;;;;;;9.17;100.00;97443.22;4155420;28;20068;-73
2022/11/04 05:15:26;;;;;;;2.97;2.30;;;;;;;9.17;100.00;97440.44;4157925;28;20413;-73
2022/11/04 05:17:27;;;;;;;3.47;1.98;;;;;;;9.14;100.00;97447.56;4156517;28;20530;-73
2022/11/04 05:19:27;;;;;;;3.40;1.70;;;;;;;9.17;100.00;97449.50;4157494;28;20130;-74
2022/11/04 05:21:27;;;;;;;2.35;1.85;;;;;;;9.12;100.00;97435.34;4155753;28;20110;-73
2022/11/04 05:23:28;;;;;;;2.05;1.60;;;;;;;9.08;100.00;97437.28;4153301;28;20539;-73
2022/11/04 05:25:28;;;;;;;2.40;1.80;;;;;;;9.05;100.00;97443.59;4155968;28;20052;-73
2022/11/04 05:27:28;;;;;;;2.40;1.70;;;;;;;9.07;100.00;97444.78;4153945;28;20049;-73
2022/11/04 05:29:29;;;;;;;2.10;1.63;;;;;;;9.04;100.00;97445.56;4156767;28;20073;-74
2022/11/04 05:31:29;;;;;;;1.90;1.52;;;;;;;8.97;100.00;97440.03;4155858;28;20523;-73
2022/11/04 05:33:30;;;;;;;2.00;1.42;;;;;;;8.96;100.00;97442.03;4153084;28;20169;-73
2022/11/04 05:35:31;;;;;;;2.65;1.63;;;;;;;8.92;100.00;97440.44;4156722;28;20045;-73
2022/11/04 05:37:31;;;;;;;2.10;1.60;;;;;;;8.88;100.00;97445.16;4154994;28;20262;-73
2022/11/04 05:39:31;;;;;;;1.95;1.45;;;;;;;8.88;100.00;97451.47;4155382;28;20187;-73
2022/11/04 05:41:33;;;;;;;1.80;1.35;;;;;;;8.84;100.00;97450.66;4153533;28;20107;-73
2022/11/04 05:43:34;;;;;;;1.95;1.52;;;;;;;8.82;100.00;97452.22;4154662;28;20038;-74
2022/11/04 05:45:34;;;;;;;2.17;1.60;;;;;;;8.80;100.00;97454.59;4155210;28;20067;-74
2022/11/04 05:47:34;;;;;;;2.38;1.73;;;;;;;8.78;100.00;97460.50;4153526;28;20046;-73
2022/11/04 05:49:34;;;;;;;2.95;1.90;;;;;;;8.78;100.00;97473.50;4154519;28;20119;-74
2022/11/04 05:51:35;;;;;;;2.58;1.80;;;;;;;8.75;100.00;97472.31;4154671;28;20123;-73
2022/11/04 05:53:35;;;;;;;2.53;1.85;;;;;;;8.72;100.00;97478.63;4154351;28;20095;-73
2022/11/04 05:55:35;;;;;;;3.03;1.70;;;;;;;8.67;100.00;97485.28;4154148;28;20486;-73
2022/11/04 05:57:37;;;;;;;2.80;1.88;;;;;;;8.64;100.00;97488.84;4155063;28;20053;-73
2022/11/04 05:59:37;;;;;;;3.97;1.88;;;;;;;8.62;100.00;97487.66;4154107;28;20052;-73
2022/11/04 06:01:40;;;;;;;2.30;1.70;;;;;;;8.63;100.00;97491.97;4102074;28;20064;-74
2022/11/04 06:03:40;;;;;;;2.47;1.75;;;;;;;8.59;100.00;97497.47;4156905;28;20051;-74
2022/11/04 06:05:41;;;;;;;2.65;1.80;;;;;;;8.59;100.00;97496.69;4155011;28;20042;-73
2022/11/04 06:07:41;;;;;;;2.35;1.60;;;;;;;8.55;100.00;97502.19;4155848;28;20474;-73
2022/11/04 06:09:41;;;;;;;1.70;1.25;;;;;;;8.59;98.33;97508.50;4157372;28;20037;-73
2022/11/04 06:11:42;;;;;;;2.03;1.48;;;;;;;8.56;97.53;97503.78;4157217;28;20049;-73
2022/11/04 06:13:42;;;;;;;3.65;2.83;;;;;;;8.58;98.29;97515.19;4157819;28;20090;-73
2022/11/04 06:15:43;;;;;;;3.83;3.15;;;;;;;8.61;97.20;97519.94;4158626;28;20501;-74
2022/11/04 06:17:43;;;;;;;4.38;3.28;;;;;;;8.57;97.76;97507.31;4158774;28;20735;-74
2022/11/04 06:19:44;;;;;;;3.80;3.40;;;;;;;8.56;97.25;97509.28;4157298;28;20099;-73
2022/11/04 06:21:44;;;;;;;5.00;4.22;;;;;;;8.56;97.37;97512.03;4157471;28;20081;-73
2022/11/04 06:23:44;;;;;;;2.58;2.22;;;;;;;8.59;97.21;97522.28;4157378;28;20041;-73
2022/11/04 06:25:45;;;;;;;3.38;1.95;;;;;;;8.59;96.52;97511.25;4159292;28;20115;-73
2022/11/04 06:27:45;;;;;;;4.93;1.90;;;;;;;8.62;95.97;97517.97;4162372;28;20547;-73
2022/11/04 06:29:46;;;;;;;3.55;2.63;;;;;;;8.58;96.42;97506.91;4159773;28;20044;-73
2022/11/04 06:31:46;;;;;;;3.03;2.42;;;;;;;8.53;95.27;97507.31;4159585;28;20042;-73
2022/11/04 06:33:47;;;;;;;7.38;3.15;;;;;;;8.55;94.56;97518.75;4157155;28;20038;-73
2022/11/04 06:35:47;;;;;;;4.40;2.50;;;;;;;8.54;94.76;97516.38;4157477;28;20048;-73
2022/11/04 06:37:47;;;;;;;5.53;2.53;;;;;;;8.54;94.92;97524.66;4160248;28;20372;-73
2022/11/04 06:39:47;;;;;;;3.78;2.20;;;;;;;8.56;95.17;97523.06;4159727;28;20045;-73
2022/11/04 06:41:48;;;;;;;2.20;1.30;;;;;;;8.54;94.95;97519.91;4157915;28;20370;-73
2022/11/04 06:43:48;;;;;;;4.03;1.77;;;;;;;8.54;95.27;97510.88;4155157;28;20056;-73
2022/11/04 06:46:00;;;;;;;2.83;2.20;;;;;;;8.52;95.18;97505.72;4157760;28;20069;-73
2022/11/04 06:48:00;;;;;;;2.88;1.70;;;;;;;8.50;94.31;97505.31;4155889;28;20041;-73
2022/11/04 06:50:00;;;;;;;2.40;1.30;;;;;;;8.54;94.10;97508.88;4162033;28;20126;-73
2022/11/04 06:52:01;;;;;;;1.17;0.98;;;;;;;8.53;93.76;97499.03;4156657;28;20042;-73
2022/11/04 06:54:02;;;;;;;2.47;1.10;;;;;;;8.54;92.60;97513.63;4156103;28;20025;-73
2022/11/04 06:56:02;;;;;;;1.27;1.10;;;;;;;8.53;92.92;97534.09;4155705;28;20033;-73
2022/11/04 06:58:03;;;;;;;3.92;1.50;;;;;;;8.51;92.84;97537.22;4156575;28;20021;-73
2022/11/04 07:00:04;;;;;;;3.03;2.03;;;;;;;8.56;92.36;97549.84;4156831;28;20477;-73
2022/11/04 07:02:04;;;;;;;3.13;1.55;;;;;;;8.53;92.97;97547.88;4155993;28;20037;-73
2022/11/04 07:04:05;;;;;;;3.03;1.92;;;;;;;8.49;93.92;97547.06;4161261;28;20529;-73
2022/11/04 07:06:09;;;;;;;1.65;0.95;;;;;;;8.50;93.43;97554.16;4161609;28;20086;-73
2022/11/04 07:08:09;;;;;;;1.73;1.20;;;;;;;8.46;93.39;97559.66;4159091;28;20385;-73
2022/11/04 07:10:10;;;;;;;2.08;1.38;;;;;;;8.43;94.18;97552.94;4162249;28;20346;-73
2022/11/04 07:12:10;;;;;;;2.15;1.00;;;;;;;8.42;94.73;97556.88;4158712;28;20025;-73
2022/11/04 07:14:11;;;;;;;0.90;0.90;;;;;;;8.41;95.30;97562.78;4158892;28;20377;-73
2022/11/04 07:16:12;;;;;;;1.80;1.27;;;;;;;8.39;95.89;97576.16;4158187;28;20040;-73
2022/11/04 07:18:12;;;;;;;1.90;1.30;;;;;;;8.38;95.89;97574.56;4157648;28;20053;-73
2022/11/04 07:20:13;;;;;;;1.80;1.13;;;;;;;8.39;95.93;97570.66;4159480;28;20033;-73
2022/11/04 07:22:13;;;;;;;2.13;1.15;;;;;;;8.34;96.28;97563.47;4157953;28;20066;-73
2022/11/04 07:24:13;;;;;;;1.90;1.27;;;;;;;8.34;96.04;97555.22;4160429;28;20114;-73
2022/11/04 07:26:14;;;;;;;3.50;1.70;;;;;;;8.31;95.07;97547.72;4161283;28;20012;-73
2022/11/04 07:28:14;;;;;;;3.65;1.27;;;;;;;8.33;95.27;97548.13;4158034;28;20501;-73
2022/11/04 07:30:14;;;;;;;3.47;1.67;;;;;;;8.33;95.34;97561.13;4160090;28;20395;-73
2022/11/04 07:32:15;;;;;;;6.63;2.20;;;;;;;8.33;95.12;97575.69;4157961;28;20025;-73
2022/11/04 07:34:16;;;;;;;4.88;2.75;;;;;;;8.31;94.90;97586.31;4158331;28;20040;-73
2022/11/04 07:36:17;;;;;;;3.30;2.03;;;;;;;8.35;95.03;97605.66;4158026;28;20458;-73
2022/11/04 07:38:18;;;;;;;2.42;1.70;;;;;;;8.35;95.20;97609.19;4160487;28;20413;-73
2022/11/04 07:40:19;;;;;;;2.72;1.52;;;;;;;8.37;94.51;97601.34;4156444;28;20068;-73
2022/11/04 07:42:19;;;;;;;2.38;1.30;;;;;;;8.38;93.68;97594.66;4158610;28;20057;-73
2022/11/04 07:44:21;;;;;;;1.92;1.30;;;;;;;8.36;93.21;97590.72;4158931;28;20075;-73
2022/11/04 07:46:22;;;;;;;3.63;1.63;;;;;;;8.37;93.32;97586.78;4156992;28;20057;-73
2022/11/04 07:48:22;;;;;;;1.52;1.35;;;;;;;8.38;93.56;97589.16;4160875;28;20065;-73
2022/11/04 07:50:22;;;;;;;2.20;1.23;;;;;;;8.39;93.47;97584.41;4159231;28;20048;-73
2022/11/04 07:52:23;;;;;;;1.38;1.23;;;;;;;8.36;94.12;97602.53;4157484;28;20397;-73
2022/11/04 07:54:23;;;;;;;1.60;0.90;;;;;;;8.35;93.43;97609.19;4161927;28;20524;-73
2022/11/04 07:56:24;;;;;;;2.08;1.15;;;;;;;8.39;92.72;97612.00;4158003;28;20106;-73
2022/11/04 07:58:24;;;;;;;2.08;1.40;;;;;;;8.40;93.62;97619.06;4157716;28;20068;-73
2022/11/04 08:00:25;;;;;;;2.03;1.27;;;;;;;8.40;93.37;97617.09;4157176;28;20038;-73
2022/11/04 08:02:25;;;;;;;2.15;1.50;;;;;;;8.39;91.96;97618.28;4158988;28;20045;-73
2022/11/04 08:04:25;;;;;;;3.03;1.10;;;;;;;8.37;91.93;97626.16;4155483;28;20045;-73
2022/11/04 08:06:26;;;;;;;1.52;1.10;;;;;;;8.39;92.49;97626.56;4158038;28;20087;-73
2022/11/04 08:08:27;;;;;;;1.73;1.30;;;;;;;8.40;91.92;97630.09;4154371;28;20096;-73
2022/11/04 08:10:28;;;;;;;1.45;0.90;;;;;;;8.38;91.42;97640.72;4155288;28;20034;-73
2022/11/04 08:12:28;;;;;;;4.15;1.23;;;;;;;8.37;91.92;97637.19;4155358;28;20481;-73
2022/11/04 08:14:29;;;;;;;3.80;1.17;;;;;;;8.38;91.37;97644.28;4154511;28;20108;-73
2022/11/04 08:16:29;;;;;;;2.33;1.20;;;;;;;8.40;90.79;97633.66;4155553;28;20184;-73
2022/11/04 08:18:31;;;;;;;2.30;1.40;;;;;;;8.40;91.08;97635.63;4159563;28;20037;-73
2022/11/04 08:20:31;;;;;;;2.22;1.00;;;;;;;8.41;90.36;97640.75;4156286;28;20119;-73
2022/11/04 08:22:33;;;;;;;4.15;1.02;;;;;;;8.42;90.06;97644.28;4156425;28;20139;-73
2022/11/04 08:24:34;;;;;;;1.83;1.40;;;;;;;8.45;89.98;97635.25;4155493;28;20048;-73
2022/11/04 08:26:34;;;;;;;2.67;0.93;;;;;;;8.42;89.51;97627.75;4154612;28;20037;-73
2022/11/04 08:28:35;;;;;;;2.47;0.95;;;;;;;8.47;89.56;97626.59;4153323;28;20046;-73
2022/11/04 08:30:35;;;;;;;2.95;1.38;;;;;;;8.42;90.00;97620.25;4155450;28;20045;-73
2022/11/04 08:32:35;;;;;;;2.47;1.20;;;;;;;8.50;89.71;97620.31;4154148;28;20042;-73
2022/11/04 08:34:36;;;;;;;1.63;1.13;;;;;;;8.44;90.27;97604.16;4153922;28;20049;-73
2022/11/04 08:36:39;;;;;;;1.95;1.00;;;;;;;8.46;90.04;97595.50;4154541;28;20048;-73
2022/11/04 08:38:40;;;;;;;2.72;1.25;;;;;;;8.40;90.27;97583.25;4155344;28;20048;-73
2022/11/04 08:40:40;;;;;;;1.95;1.17;;;;;;;8.42;89.89;97587.19;4155548;28;20041;-73
2022/11/04 08:42:40;;;;;;;1.27;1.00;;;;;;;8.45;88.81;97574.63;4159136;28;20298;-73
2022/11/04 08:44:41;;;;;;;1.55;1.27;;;;;;;8.41;88.59;97573.78;4155966;28;20509;-73
2022/11/04 08:46:43;;;;;;;1.75;1.20;;;;;;;8.44;89.34;97560.03;4155456;28;20045;-73
2022/11/04 08:48:44;;;;;;;3.88;1.42;;;;;;;8.44;89.23;97545.47;4155077;28;20045;-73
2022/11/04 08:50:51;;;;;;;1.80;1.48;;;;;;;8.47;88.84;97533.66;4158306;28;20333;-73
2022/11/04 08:52:53;;;;;;;4.18;1.42;;;;;;;8.56;88.78;97536.84;4155609;28;20055;-73
2022/11/04 08:54:53;;;;;;;5.10;1.40;;;;;;;8.65;88.52;97539.25;4163149;28;20455;-73
2022/11/04 08:56:54;;;;;;;4.63;1.05;;;;;;;8.68;88.38;97539.25;4156495;28;20084;-73
2022/11/04 08:58:57;;;;;;;4.30;1.33;;;;;;;8.74;87.71;97534.16;4160735;28;20528;-73
2022/11/04 09:01:01;;;;;;;;;;;;;;;8.77;87.17;97533.41;4155362;28;20104;-73
2022/11/04 09:03:03;;;;;;;3.00;1.63;;;;;;;8.73;88.07;97532.59;4154969;28;20318;-73
2022/11/04 09:05:03;;;;;;;3.33;1.25;;;;;;;8.68;87.70;97514.44;4158041;28;20204;-73
2022/11/04 09:07:05;;;;;;;2.78;1.23;;;;;;;8.73;87.94;97516.03;4156738;28;20420;-73
2022/11/04 09:09:07;;;;;;;3.20;1.10;;;;;;;8.69;88.86;97520.78;4153807;28;20152;-73
2022/11/04 09:11:10;;;;;;;3.05;1.05;;;;;;;8.70;89.88;97530.63;4155677;28;20115;-73
2022/11/04 09:13:11;;;;;;;3.20;1.20;;;;;;;8.78;89.21;97536.94;4154786;28;20305;-73
2022/11/04 09:15:12;;;;;;;4.32;1.02;;;;;;;8.78;89.30;97536.94;4155431;28;20482;-73
2022/11/04 09:17:13;;;;;;;5.50;1.23;;;;;;;8.82;88.78;97548.78;4154383;28;20068;-73
2022/11/04 09:19:13;;;;;;;4.82;1.30;;;;;;;8.86;88.34;97544.84;4155234;28;20553;-73
2022/11/04 09:21:13;;;;;;;3.13;1.20;;;;;;;8.92;88.35;97567.31;4155664;28;20083;-73
2022/11/04 09:23:14;;;;;;;2.00;1.10;;;;;;;8.95;87.77;97572.06;4153357;28;20089;-73
2022/11/04 09:25:14;;;;;;;2.92;1.02;;;;;;;8.92;87.75;97578.34;4156096;28;20042;-73
2022/11/04 09:27:14;;;;;;;2.15;1.00;;;;;;;9.02;87.60;97588.66;4160683;28;20600;-73
2022/11/04 09:29:15;;;;;;;2.70;1.10;;;;;;;9.02;87.89;97596.94;4155552;28;20041;-73
2022/11/04 09:31:17;;;;;;;2.13;1.05;;;;;;;9.02;88.04;97613.50;4158060;28;20037;-73
2022/11/04 09:33:18;;;;;;;4.53;1.45;;;;;;;9.05;87.59;97629.25;4156764;28;20442;-73
2022/11/04 09:35:19;;;;;;;4.95;1.20;;;;;;;9.06;87.63;97628.06;4155268;28;20390;-73
2022/11/04 09:37:19;;;;;;;4.22;1.20;;;;;;;9.14;86.87;97629.69;4158864;28;20037;-73
2022/11/04 09:39:20;;;;;;;2.25;1.08;;;;;;;9.16;85.67;97635.59;4158748;28;20040;-73
2022/11/04 09:41:27;;;;;;;3.83;1.48;;;;;;;9.17;86.41;97619.81;4154362;28;20049;-73
2022/11/04 09:43:41;;;;;;;3.58;1.20;;;;;;;9.16;86.37;97618.25;4159019;28;20046;-73
2022/11/04 09:45:42;;;;;;;2.47;1.30;;;;;;;9.17;85.37;97628.91;4157691;28;20456;-73
2022/11/04 09:47:46;;;;;;;4.57;1.30;;;;;;;9.16;85.54;97629.28;4154463;28;20065;-73
2022/11/04 09:49:50;;;;;;;7.82;1.45;;;;;;;9.15;85.65;97625.75;4154305;28;20516;-73
2022/11/04 09:51:51;;;;;;;4.78;1.73;;;;;;;9.14;85.59;97626.13;4155172;28;20065;-73
2022/11/04 09:53:56;;;;;;;3.75;1.10;;;;;;;9.15;85.56;97624.94;4153234;28;20145;-73
2022/11/04 09:56:05;;;;;;;4.60;2.13;;;;;;;9.13;85.55;97621.81;4155339;28;20490;-73
2022/11/04 09:58:11;;;;;;;3.22;1.85;;;;;;;9.11;86.44;97619.44;4157884;28;20037;-73
2022/11/04 10:00:16;;;;;;;3.45;1.80;;;;;;;9.10;87.04;97623.38;4154399;28;20033;-73
2022/11/04 10:02:29;;;;;;;3.72;1.83;;;;;;;9.13;86.45;97617.06;4155351;28;20045;-73
2022/11/04 10:05:12;;;;;;;2.60;1.60;;;;;;;9.09;86.40;97609.94;4157745;28;20044;-73
2022/11/04 10:07:15;;;;;;;7.85;1.35;;;;;;;9.13;85.94;97603.28;4155693;28;20061;-73
2022/11/04 10:09:16;;;;;;;3.58;1.13;;;;;;;9.16;85.55;97601.69;4155184;28;20434;-73
2022/11/04 10:11:30;;;;;;;2.33;1.10;;;;;;;9.16;86.92;97598.94;4154617;28;20355;-73
2022/11/04 10:13:49;;;;;;;4.47;1.23;;;;;;;9.18;86.56;97602.09;4155181;28;20408;-73
2022/11/04 10:16:15;;;;;;;4.70;1.25;;;;;;;9.20;86.14;97603.28;4156268;28;20064;-73
2022/11/04 10:18:31;;;;;;;3.15;1.70;;;;;;;9.18;86.03;97605.63;4132741;28;20474;-73